createdAt,value
2022-11-12T00:01:44.022Z,102178.97
2022-11-12T00:05:05.473Z,102179.63
2022-11-12T00:08:27.246Z,102186.81
2022-11-12T00:11:48.580Z,102181.47
2022-11-12T00:15:11.391Z,102179.75
2022-11-12T00:18:32.307Z,102183.41
2022-11-12T00:21:53.789Z,102186.16
2022-11-12T00:25:15.628Z,102188.72
2022-11-12T00:28:38.464Z,102183.41
2022-11-12T00:32:00.024Z,102194.94
2022-11-12T00:35:21.691Z,102184.16
2022-11-12T00:38:42.683Z,102171.78
2022-11-12T00:42:04.570Z,102181.69
2022-11-12T00:45:26.154Z,102179.84
2022-11-12T00:48:47.895Z,102184.44
2022-11-12T00:52:09.281Z,102186.31
2022-11-12T00:55:31.021Z,102190.75
2022-11-12T00:58:52.054Z,102181.06
2022-11-12T01:02:13.849Z,102180.16
2022-11-12T01:05:35.242Z,102165.88
2022-11-12T01:08:56.996Z,102177.50
2022-11-12T01:12:18.378Z,102167.72
2022-11-12T01:15:43.269Z,102176.66
2022-11-12T01:19:07.092Z,102173.16
2022-11-12T01:22:28.827Z,102163.06
2022-11-12T01:25:50.128Z,102172.91
2022-11-12T01:29:11.727Z,102170.25
2022-11-12T01:32:37.582Z,102173.06
2022-11-12T01:36:00.311Z,102169.38
2022-11-12T01:39:21.503Z,102166.78
2022-11-12T01:42:43.276Z,102181.03
2022-11-12T01:46:15.159Z,102171.22
2022-11-12T01:49:48.756Z,102177.56
2022-11-12T01:53:14.412Z,102181.19
2022-11-12T01:56:37.861Z,102166.84
2022-11-12T02:00:06.818Z,102170.38
2022-11-12T02:03:28.138Z,102180.97
2022-11-12T02:06:50.965Z,102176.53
2022-11-12T02:10:12.496Z,102175.44
2022-11-12T02:13:52.414Z,102177.34
2022-11-12T02:17:13.845Z,102161.09
2022-11-12T02:20:36.683Z,102172.81
2022-11-12T02:24:02.159Z,102175.25
2022-11-12T02:27:23.872Z,102163.72
2022-11-12T02:30:47.346Z,102172.50
2022-11-12T02:34:08.274Z,102187.69
2022-11-12T02:37:29.996Z,102186.69
2022-11-12T02:40:52.216Z,102188.63
2022-11-12T02:44:13.412Z,102185.03
2022-11-12T02:47:34.657Z,102185.03
2022-11-12T02:50:56.124Z,102184.22
2022-11-12T02:54:20.220Z,102196.66
2022-11-12T02:57:41.823Z,102186.69
2022-11-12T03:01:03.254Z,102193.50
2022-11-12T03:04:24.353Z,102190.09
2022-11-12T03:07:45.466Z,102189.34
2022-11-12T03:11:15.385Z,102199.25
2022-11-12T03:14:36.444Z,102197.38
2022-11-12T03:17:59.251Z,102200.75
2022-11-12T03:21:20.270Z,102210.66
2022-11-12T03:24:41.605Z,102194.47
2022-11-12T03:28:11.893Z,102201.63
2022-11-12T03:31:33.302Z,102215.81
2022-11-12T03:34:55.630Z,102207.75
2022-11-12T03:38:17.114Z,102209.44
2022-11-12T03:41:38.241Z,102214.78
2022-11-12T03:44:59.977Z,102213.06
2022-11-12T03:48:21.465Z,102208.56
2022-11-12T03:51:42.812Z,102205.69
2022-11-12T03:55:04.875Z,102210.94
2022-11-12T03:58:26.582Z,102204.00
2022-11-12T04:01:48.448Z,102205.78
2022-11-12T04:05:29.130Z,102191.53
2022-11-12T04:08:50.788Z,102191.25
2022-11-12T04:12:30.918Z,102196.81
2022-11-12T04:16:12.254Z,102182.28
2022-11-12T04:19:52.145Z,102198.44
2022-11-12T04:23:13.257Z,102198.25
2022-11-12T04:26:34.705Z,102198.09
2022-11-12T04:30:14.951Z,102196.34
2022-11-12T04:33:36.465Z,102194.47
2022-11-12T04:36:57.433Z,102195.28
2022-11-12T04:40:45.848Z,102195.19
2022-11-12T04:44:30.411Z,102189.06
2022-11-12T04:47:52.017Z,102189.84
2022-11-12T04:51:31.817Z,102191.03
2022-11-12T04:54:53.914Z,102196.06
2022-11-12T04:58:14.733Z,102187.19
2022-11-12T05:01:35.954Z,102194.19
2022-11-12T05:04:57.170Z,102208.28
2022-11-12T05:08:18.931Z,102200.19
2022-11-12T05:11:40.332Z,102201.63
2022-11-12T05:15:02.972Z,102198.94
2022-11-12T05:18:24.281Z,102199.06
2022-11-12T05:22:04.818Z,102204.81
2022-11-12T05:25:25.981Z,102201.94
2022-11-12T05:28:47.703Z,102219.97
2022-11-12T05:32:11.663Z,102201.06
2022-11-12T05:35:33.472Z,102211.88
2022-11-12T05:38:54.938Z,102216.44
2022-11-12T05:42:16.242Z,102222.78
2022-11-12T05:45:37.283Z,102220.06
2022-11-12T05:48:58.820Z,102216.56
2022-11-12T05:52:20.133Z,102225.47
2022-11-12T05:55:41.692Z,102229.00
2022-11-12T05:59:08.419Z,102218.34
2022-11-12T06:02:30.079Z,102234.09
2022-11-12T06:05:50.974Z,102234.78
2022-11-12T06:09:12.556Z,102235.34
2022-11-12T06:12:33.774Z,102242.41
2022-11-12T06:15:56.333Z,102235.44
2022-11-12T06:19:17.627Z,102229.31
2022-11-12T06:22:39.251Z,102234.53
2022-11-12T06:26:00.710Z,102231.59
2022-11-12T06:29:21.845Z,102246.59
2022-11-12T06:32:46.665Z,102250.94
2022-11-12T06:36:08.890Z,102250.84
2022-11-12T06:39:30.010Z,102246.38
2022-11-12T06:42:57.275Z,102260.41
2022-11-12T06:46:18.588Z,102259.78
2022-11-12T06:49:40.194Z,102263.22
2022-11-12T06:53:01.180Z,102266.53
2022-11-12T06:56:22.856Z,102269.59
2022-11-12T06:59:43.961Z,102276.78
2022-11-12T07:03:09.889Z,102278.47
2022-11-12T07:06:31.233Z,102279.47
2022-11-12T07:09:52.907Z,102272.31
2022-11-12T07:13:14.212Z,102274.16
2022-11-12T07:16:36.100Z,102275.19
2022-11-12T07:20:03.275Z,102279.38
2022-11-12T07:23:25.704Z,102283.03
2022-11-12T07:26:47.830Z,102288.31
2022-11-12T07:30:09.691Z,102289.28
2022-11-12T07:33:31.751Z,102298.16
2022-11-12T07:36:53.269Z,102291.84
2022-11-12T07:40:15.476Z,102294.69
2022-11-12T07:43:38.185Z,102293.78
2022-11-12T07:46:59.062Z,102280.50
2022-11-12T07:50:20.835Z,102278.78
2022-11-12T07:53:42.732Z,102283.22
2022-11-12T07:57:04.261Z,102290.88
2022-11-12T08:00:25.520Z,102280.34
2022-11-12T08:03:47.112Z,102272.16
2022-11-12T08:07:08.174Z,102279.28
2022-11-12T08:10:29.549Z,102277.50
2022-11-12T08:13:51.209Z,102284.69
2022-11-12T08:17:13.112Z,102285.66
2022-11-12T08:20:34.350Z,102308.66
2022-11-12T08:23:55.904Z,102293.44
2022-11-12T08:27:17.025Z,102303.81
2022-11-12T08:30:38.409Z,102300.47
2022-11-12T08:33:59.442Z,102301.47
2022-11-12T08:37:21.224Z,102308.78
2022-11-12T08:40:43.042Z,102312.34
2022-11-12T08:44:08.525Z,102302.47
2022-11-12T08:47:30.302Z,102256.53
2022-11-12T08:50:52.002Z,102301.84
2022-11-12T08:54:13.261Z,102312.31
2022-11-12T08:57:42.958Z,102307.13
2022-11-12T09:01:06.249Z,102318.75
2022-11-12T09:04:27.850Z,102325.84
2022-11-12T09:07:50.448Z,102327.81
2022-11-12T09:11:12.825Z,102318.53
2022-11-12T09:14:33.713Z,102321.38
2022-11-12T09:17:57.034Z,102325.66
2022-11-12T09:21:19.644Z,102322.97
2022-11-12T09:24:41.385Z,102316.94
2022-11-12T09:28:09.824Z,102327.56
2022-11-12T09:31:31.387Z,102318.63
2022-11-12T09:34:52.801Z,102325.75
2022-11-12T09:38:15.552Z,102337.41
2022-11-12T09:41:38.890Z,102328.56
2022-11-12T09:45:14.427Z,102326.03
2022-11-12T09:48:42.014Z,102331.41
2022-11-12T09:52:10.544Z,102328.75
2022-11-12T09:55:35.148Z,102321.41
2022-11-12T09:58:57.105Z,102328.56
2022-11-12T10:02:33.582Z,102335.75
2022-11-12T10:06:07.191Z,102338.44
2022-11-12T10:10:00.886Z,102346.41
2022-11-12T10:13:28.929Z,102351.72
2022-11-12T10:16:52.937Z,102358.00
2022-11-12T10:20:35.989Z,102356.69
2022-11-12T10:24:00.716Z,102361.13
2022-11-12T10:27:26.361Z,102361.41
2022-11-12T10:30:47.539Z,102355.84
2022-11-12T10:34:14.684Z,102359.47
2022-11-12T10:37:48.106Z,102356.00
2022-11-12T10:41:22.800Z,102358.28
2022-11-12T10:44:44.963Z,102370.84
2022-11-12T10:48:08.495Z,102358.38
2022-11-12T10:51:37.370Z,102353.06
2022-11-12T10:55:15.104Z,102366.34
2022-11-12T10:58:36.095Z,102346.41
2022-11-12T11:02:00.453Z,102350.13
2022-11-12T11:05:28.398Z,102354.06
2022-11-12T11:08:52.360Z,102341.38
2022-11-12T11:12:24.732Z,102347.00
2022-11-12T11:16:04.180Z,102340.22
2022-11-12T11:19:37.362Z,102327.72
2022-11-12T11:23:42.157Z,102345.69
2022-11-12T11:27:20.451Z,102355.38
2022-11-12T11:30:55.246Z,102350.91
2022-11-12T11:34:23.530Z,102354.47
2022-11-12T11:38:03.417Z,102351.16
2022-11-12T11:41:34.388Z,102348.38
2022-11-12T11:45:19.258Z,102345.50
2022-11-12T11:49:09.927Z,102341.00
2022-11-12T11:52:47.374Z,102338.81
2022-11-12T11:56:18.512Z,102341.59
2022-11-12T12:00:01.619Z,102344.50
2022-11-12T12:03:22.492Z,102341.97
2022-11-12T12:07:05.378Z,102340.25
2022-11-12T12:11:06.257Z,102338.31
2022-11-12T12:14:47.918Z,102342.91
2022-11-12T12:18:23.589Z,102337.06
2022-11-12T12:21:48.764Z,102345.94
2022-11-12T12:25:18.566Z,102333.22
2022-11-12T12:28:40.799Z,102343.19
2022-11-12T12:32:27.973Z,102338.13
2022-11-12T12:35:59.158Z,102331.06
2022-11-12T12:39:44.939Z,102335.63
2022-11-12T12:43:41.670Z,102340.06
2022-11-12T12:47:04.803Z,102326.84
2022-11-12T12:50:26.720Z,102326.00
2022-11-12T12:53:48.224Z,102330.66
2022-11-12T12:57:33.725Z,102326.91
2022-11-12T13:01:23.763Z,102328.78
2022-11-12T13:04:55.261Z,102327.81
2022-11-12T13:08:24.118Z,102341.06
2022-11-12T13:12:04.342Z,102334.91
2022-11-12T13:16:02.727Z,102333.84
2022-11-12T13:19:34.556Z,102338.19
2022-11-12T13:22:55.867Z,102340.94
2022-11-12T13:26:42.541Z,102354.53
2022-11-12T13:30:04.439Z,102341.75
2022-11-12T13:33:30.708Z,102354.34
2022-11-12T13:37:02.063Z,102343.59
2022-11-12T13:40:23.697Z,102342.31
2022-11-12T13:43:50.490Z,102342.53
2022-11-12T13:47:20.781Z,102350.59
2022-11-12T13:50:42.526Z,102352.41
2022-11-12T13:54:24.364Z,102354.34
2022-11-12T13:57:53.606Z,102355.13
2022-11-12T14:01:20.695Z,102356.91
2022-11-12T14:04:41.953Z,102338.28
2022-11-12T14:08:25.515Z,102344.50
2022-11-12T14:12:08.719Z,102353.66
2022-11-12T14:15:50.231Z,102347.50
2022-11-12T14:19:26.813Z,102347.59
2022-11-12T14:22:48.744Z,102342.03
2022-11-12T14:26:11.959Z,102344.50
2022-11-12T14:29:36.027Z,102348.19
2022-11-12T14:33:09.945Z,102351.56
2022-11-12T14:36:31.667Z,102352.47
2022-11-12T14:39:53.098Z,102340.13
2022-11-12T14:43:36.668Z,102341.91
2022-11-12T14:46:59.110Z,102352.28
2022-11-12T14:50:25.543Z,102352.34
2022-11-12T14:53:58.207Z,102349.69
2022-11-12T14:57:29.921Z,102342.63
2022-11-12T15:00:53.471Z,102338.34
2022-11-12T15:04:20.429Z,102352.75
2022-11-12T15:08:01.654Z,102343.66
2022-11-12T15:11:30.690Z,102363.91
2022-11-12T15:14:53.153Z,102354.84
2022-11-12T15:18:21.301Z,102364.31
2022-11-12T15:21:51.706Z,102357.53
2022-11-12T15:25:33.743Z,102363.75
2022-11-12T15:29:10.994Z,102363.91
2022-11-12T15:32:34.378Z,102350.44
2022-11-12T15:36:00.356Z,102358.50
2022-11-12T15:39:23.320Z,102358.69
2022-11-12T15:42:44.836Z,102368.25
2022-11-12T15:46:11.198Z,102373.75
2022-11-12T15:49:32.221Z,102366.66
2022-11-12T15:52:54.906Z,102369.28
2022-11-12T15:56:18.193Z,102379.25
2022-11-12T15:59:39.986Z,102376.50
2022-11-12T16:03:19.392Z,102376.59
2022-11-12T16:06:41.615Z,102393.34
2022-11-12T16:10:03.605Z,102394.34
2022-11-12T16:13:28.757Z,102400.28
2022-11-12T16:16:50.489Z,102401.25
2022-11-12T16:20:17.354Z,102410.19
2022-11-12T16:23:38.799Z,102405.78
2022-11-12T16:27:01.489Z,102397.78
2022-11-12T16:30:28.191Z,102409.50
2022-11-12T16:33:50.319Z,102401.25
2022-11-12T16:37:15.543Z,102393.25
2022-11-12T16:40:37.384Z,102404.91
2022-11-12T16:43:58.912Z,102400.50
2022-11-12T16:47:20.284Z,102393.25
2022-11-12T16:50:41.666Z,102403.13
2022-11-12T16:54:03.491Z,102401.53
2022-11-12T16:57:24.597Z,102390.84
2022-11-12T17:00:47.455Z,102395.38
2022-11-12T17:04:08.715Z,102387.34
2022-11-12T17:07:30.788Z,102386.38
2022-11-12T17:10:52.702Z,102389.00
2022-11-12T17:14:14.225Z,102383.78
2022-11-12T17:17:35.762Z,102385.47
2022-11-12T17:20:57.796Z,102395.31
2022-11-12T17:24:19.050Z,102390.06
2022-11-12T17:27:41.886Z,102396.97
2022-11-12T17:31:11.043Z,102389.91
2022-11-12T17:34:33.604Z,102397.97
2022-11-12T17:37:55.077Z,102394.44
2022-11-12T17:41:17.070Z,102394.50
2022-11-12T17:44:38.883Z,102390.91
2022-11-12T17:48:00.833Z,102396.31
2022-11-12T17:51:24.581Z,102409.53
2022-11-12T17:54:46.573Z,102405.00
2022-11-12T17:58:08.648Z,102390.78
2022-11-12T18:01:32.255Z,102399.53
2022-11-12T18:04:53.752Z,102401.41
2022-11-12T18:08:15.548Z,102397.72
2022-11-12T18:11:54.389Z,102411.22
2022-11-12T18:15:17.544Z,102396.00
2022-11-12T18:18:38.683Z,102387.22
2022-11-12T18:22:02.793Z,102406.66
2022-11-12T18:25:24.355Z,102394.16
2022-11-12T18:28:55.045Z,102388.91
2022-11-12T18:32:16.401Z,102386.84
2022-11-12T18:35:38.442Z,102383.31
2022-11-12T18:38:59.781Z,102383.13
2022-11-12T18:42:21.953Z,102389.50
2022-11-12T18:45:43.376Z,102403.88
2022-11-12T18:49:05.492Z,102398.50
2022-11-12T18:52:28.098Z,102397.59
2022-11-12T18:55:50.122Z,102391.31
2022-11-12T18:59:13.125Z,102401.88
2022-11-12T19:02:35.295Z,102405.56
2022-11-12T19:06:00.963Z,102400.06
2022-11-12T19:09:22.733Z,102409.84
2022-11-12T19:12:43.935Z,102410.63
2022-11-12T19:16:12.555Z,102404.41
2022-11-12T19:19:34.482Z,102409.72
2022-11-12T19:22:56.822Z,102398.88
2022-11-12T19:26:22.748Z,102401.53
2022-11-12T19:29:49.845Z,102419.97
2022-11-12T19:33:11.767Z,102411.13
2022-11-12T19:36:33.863Z,102401.94
2022-11-12T19:39:56.401Z,102402.84
2022-11-12T19:43:18.488Z,102417.81
2022-11-12T19:46:40.478Z,102410.03
2022-11-12T19:50:03.493Z,102418.09
2022-11-12T19:53:24.926Z,102404.44
2022-11-12T19:56:47.485Z,102411.72
2022-11-12T20:00:11.163Z,102407.03
2022-11-12T20:03:34.170Z,102401.44
2022-11-12T20:06:56.632Z,102417.50
2022-11-12T20:10:19.900Z,102420.81
2022-11-12T20:13:44.015Z,102418.16
2022-11-12T20:17:05.817Z,102401.94
2022-11-12T20:20:29.560Z,102419.03
2022-11-12T20:23:54.342Z,102412.81
2022-11-12T20:27:17.736Z,102421.81
2022-11-12T20:30:40.539Z,102433.53
2022-11-12T20:34:02.242Z,102436.69
2022-11-12T20:37:24.721Z,102436.88
2022-11-12T20:40:47.283Z,102422.72
2022-11-12T20:44:15.080Z,102424.69
2022-11-12T20:47:38.903Z,102415.84
2022-11-12T20:51:25.289Z,102430.78
2022-11-12T20:54:47.623Z,102432.00
2022-11-12T20:58:09.688Z,102423.09
2022-11-12T21:01:31.373Z,102427.31
2022-11-12T21:04:55.415Z,102431.94
2022-11-12T21:08:17.804Z,102441.06
2022-11-12T21:11:39.804Z,102440.22
2022-11-12T21:15:01.198Z,102437.50
2022-11-12T21:18:27.553Z,102443.97
2022-11-12T21:21:48.835Z,102442.06
2022-11-12T21:25:10.522Z,102443.94
2022-11-12T21:28:38.416Z,102439.44
2022-11-12T21:32:00.508Z,102446.53
2022-11-12T21:35:22.032Z,102438.63
2022-11-12T21:38:44.446Z,102428.78
2022-11-12T21:42:05.929Z,102453.13
2022-11-12T21:45:28.973Z,102437.75
2022-11-12T21:48:54.915Z,102439.41
2022-11-12T21:52:17.272Z,102438.47
2022-11-12T21:55:39.474Z,102447.41
2022-11-12T21:59:01.697Z,102438.47
2022-11-12T22:02:23.268Z,102441.09
2022-11-12T22:05:44.903Z,102448.41
2022-11-12T22:09:07.040Z,102445.84
2022-11-12T22:12:28.970Z,102427.78
2022-11-12T22:15:50.938Z,102443.09
2022-11-12T22:19:13.179Z,102439.34
2022-11-12T22:22:34.541Z,102442.97
2022-11-12T22:25:59.988Z,102437.75
2022-11-12T22:29:21.223Z,102452.53
2022-11-12T22:32:43.264Z,102446.28
2022-11-12T22:36:06.225Z,102432.25
2022-11-12T22:39:28.622Z,102444.72
2022-11-12T22:42:50.016Z,102439.34
2022-11-12T22:46:14.968Z,102443.66
2022-11-12T22:49:36.153Z,102447.31
2022-11-12T22:52:57.915Z,102442.19
2022-11-12T22:56:19.280Z,102444.84
2022-11-12T22:59:41.094Z,102428.59
2022-11-12T23:03:02.739Z,102438.47
2022-11-12T23:06:24.366Z,102433.59
2022-11-12T23:09:45.238Z,102438.94
2022-11-12T23:13:07.965Z,102427.69
2022-11-12T23:16:30.873Z,102420.31
2022-11-12T23:19:52.566Z,102416.53
2022-11-12T23:23:14.230Z,102423.84
2022-11-12T23:26:35.864Z,102425.53
2022-11-12T23:29:56.772Z,102423.09
2022-11-12T23:33:18.441Z,102406.91
2022-11-12T23:36:39.651Z,102428.41
2022-11-12T23:40:01.333Z,102420.34
2022-11-12T23:43:22.512Z,102419.31
2022-11-12T23:46:44.240Z,102422.97
2022-11-12T23:50:06.264Z,102423.81
2022-11-12T23:53:27.972Z,102417.59
2022-11-12T23:56:49.447Z,102416.59
